Search for airport 
image banner adimage banner adimage banner ad
image banner ad

KSBA - Santa Barbara Muni

Located in Santa Barbara, United States

ICAO - SBA, IATA - SBA

Data provided by Airmate  

General information

Coordinates: N34°25'34" W119°50'29"
Elevation is 13 feet MSL.
Magnetic variation is 14° East
Rated:
View ratings:
[VIEW]
View others Airports in California

Operational data

Special qualification required
Current time UTC:
Current local time:
Weather
METAR: KSBA 211953Z COR 21006KT 8SM CLR 21/17 A3008 RMK FG BANK E-W ALONG SHORE AO2 SLP184 T02110167 $
TAF: KSBA 211957Z 2120/2218 21006KT P6SM SKC FM212100 23008KT P6SM SKC FM220300 VRB03KT P6SM SKC FM220700 VRB03KT 6SM BR OVC005 FM221000 VRB03KT 1SM BR OVC003 FM221500 VRB03KT 3SM BR OVC005
View NOTAMs / SUP AIP / TFR affecting this airport [VIEW]
Communications frequencies: [VIEW]

Runways:

RWY identifierQFULength (ft)Width (ft)SurfaceLDA (ft)
0789°6052150ASPH6052
25269°6052150ASPH6052
15R166°4184100ASPH4184
33L346°4184100ASPH4184
15L166°418075ASPH3963
33R346°418075ASPH4180

Airport contact information

Address: Santa Barbara United States

Other aviation service providers

Flight schools

Spitfire Aviation

Spitfire Aviation

Above All Aviation

Above All Aviation

Nanco Helicopters

Nanco Helicopters

Satellite view of KSBA